createdAt,value
2023-04-07T00:01:49.209Z,2.77
2023-04-07T00:04:16.841Z,2.90
2023-04-07T00:06:44.102Z,2.90
2023-04-07T00:09:11.732Z,2.93
2023-04-07T00:11:38.992Z,3.07
2023-04-07T00:14:06.158Z,3.60
2023-04-07T00:16:33.453Z,3.03
2023-04-07T00:19:00.796Z,3.70
2023-04-07T00:21:28.094Z,3.30
2023-04-07T00:23:55.569Z,3.33
2023-04-07T00:26:22.966Z,3.50
2023-04-07T00:28:50.135Z,3.40
2023-04-07T00:31:17.380Z,3.50
2023-04-07T00:33:44.638Z,3.87
2023-04-07T00:36:11.789Z,3.53
2023-04-07T00:38:38.953Z,3.37
2023-04-07T00:41:06.249Z,4.20
2023-04-07T00:43:33.654Z,3.87
2023-04-07T00:46:01.454Z,3.97
2023-04-07T00:48:28.747Z,3.77
2023-04-07T00:50:56.246Z,4.63
2023-04-07T00:53:23.492Z,4.27
2023-04-07T00:55:50.812Z,3.83
2023-04-07T00:58:17.954Z,3.77
2023-04-07T01:00:50.830Z,4.70
2023-04-07T01:03:40.590Z,4.30
2023-04-07T01:06:08.865Z,4.40
2023-04-07T01:08:51.390Z,4.60
2023-04-07T01:11:24.208Z,4.70
2023-04-07T01:13:51.866Z,4.00
2023-04-07T01:16:30.897Z,4.27
2023-04-07T01:18:59.944Z,4.53
2023-04-07T01:21:28.782Z,4.93
2023-04-07T01:24:06.849Z,4.27
2023-04-07T01:26:34.590Z,4.43
2023-04-07T01:29:20.512Z,4.20
2023-04-07T01:31:49.713Z,4.57
2023-04-07T01:34:18.257Z,4.70
2023-04-07T01:36:46.420Z,4.73
2023-04-07T01:39:14.142Z,4.27
2023-04-07T01:41:42.298Z,4.57
2023-04-07T01:44:10.434Z,4.57
2023-04-07T01:46:37.803Z,4.63
2023-04-07T01:49:05.481Z,4.93
2023-04-07T01:51:33.210Z,4.90
2023-04-07T01:54:01.572Z,4.43
2023-04-07T01:56:28.820Z,5.17
2023-04-07T01:58:56.040Z,4.60
2023-04-07T02:01:23.339Z,5.00
2023-04-07T02:03:56.788Z,5.40
2023-04-07T02:06:28.099Z,4.87
2023-04-07T02:08:58.145Z,5.27
2023-04-07T02:11:25.714Z,5.63
2023-04-07T02:13:54.814Z,4.63
2023-04-07T02:16:23.218Z,5.30
2023-04-07T02:18:50.754Z,4.80
2023-04-07T02:21:18.676Z,4.80
2023-04-07T02:23:45.929Z,5.57
2023-04-07T02:26:13.152Z,5.20
2023-04-07T02:28:40.408Z,5.40
2023-04-07T02:31:07.629Z,5.40
2023-04-07T02:33:34.837Z,5.30
2023-04-07T02:36:02.065Z,5.10
2023-04-07T02:38:29.384Z,5.63
2023-04-07T02:40:56.645Z,5.27
2023-04-07T02:43:25.411Z,5.37
2023-04-07T02:45:52.809Z,5.37
2023-04-07T02:48:20.008Z,5.40
2023-04-07T02:50:47.275Z,5.73
2023-04-07T02:53:14.474Z,5.30
2023-04-07T02:55:41.634Z,5.30
2023-04-07T02:58:08.896Z,5.60
2023-04-07T03:00:36.108Z,5.83
2023-04-07T03:03:03.424Z,5.63
2023-04-07T03:05:30.999Z,5.73
2023-04-07T03:07:58.180Z,5.27
2023-04-07T03:10:25.521Z,5.27
2023-04-07T03:12:52.762Z,5.80
2023-04-07T03:15:19.944Z,5.23
2023-04-07T03:17:47.276Z,4.53
2023-04-07T03:20:14.648Z,5.47
2023-04-07T03:22:41.955Z,5.40
2023-04-07T03:25:09.234Z,5.77
2023-04-07T03:27:36.414Z,5.57
2023-04-07T03:30:03.786Z,5.47
2023-04-07T03:32:30.918Z,6.27
2023-04-07T03:34:58.082Z,5.60
2023-04-07T03:37:25.416Z,6.20
2023-04-07T03:39:52.639Z,5.47
2023-04-07T03:42:19.782Z,6.17
2023-04-07T03:44:47.318Z,5.60
2023-04-07T03:47:14.464Z,5.80
2023-04-07T03:49:41.622Z,6.20
2023-04-07T03:52:08.852Z,5.67
2023-04-07T03:54:36.019Z,5.73
2023-04-07T03:57:03.311Z,6.23
2023-04-07T03:59:30.487Z,5.67
2023-04-07T04:01:57.664Z,6.17
2023-04-07T04:04:24.979Z,5.97
2023-04-07T04:06:52.701Z,5.73
2023-04-07T04:09:20.916Z,6.03
2023-04-07T04:11:48.199Z,5.43
2023-04-07T04:14:15.954Z,5.80
2023-04-07T04:16:44.069Z,5.77
2023-04-07T04:19:11.317Z,5.43
2023-04-07T04:21:38.500Z,5.40
2023-04-07T04:24:05.813Z,5.90
2023-04-07T04:26:33.013Z,5.50
2023-04-07T04:29:00.397Z,5.50
2023-04-07T04:31:27.645Z,5.87
2023-04-07T04:33:55.003Z,5.90
2023-04-07T04:36:22.297Z,5.87
2023-04-07T04:38:49.487Z,5.80
2023-04-07T04:41:17.942Z,5.53
2023-04-07T04:43:45.544Z,5.27
2023-04-07T04:46:12.765Z,5.33
2023-04-07T04:48:39.888Z,5.33
2023-04-07T04:51:08.301Z,6.73
2023-04-07T04:53:35.476Z,6.13
2023-04-07T04:56:02.619Z,6.40
2023-04-07T04:58:29.802Z,7.03
2023-04-07T05:00:58.341Z,6.20
2023-04-07T05:03:28.914Z,6.17
2023-04-07T05:05:56.364Z,6.77
2023-04-07T05:08:23.585Z,6.37
2023-04-07T05:10:50.876Z,7.20
2023-04-07T05:13:18.074Z,5.90
2023-04-07T05:15:45.242Z,6.93
2023-04-07T05:18:13.591Z,6.70
2023-04-07T05:20:41.086Z,6.17
2023-04-07T05:23:08.277Z,6.37
2023-04-07T05:25:35.613Z,7.40
2023-04-07T05:28:02.859Z,6.33
2023-04-07T05:30:30.033Z,6.60
2023-04-07T05:32:57.227Z,6.60
2023-04-07T05:35:24.494Z,6.90
2023-04-07T05:37:51.667Z,6.80
2023-04-07T05:40:19.278Z,6.40
2023-04-07T05:42:46.438Z,6.73
2023-04-07T05:45:13.634Z,6.77
2023-04-07T05:47:41.244Z,6.70
2023-04-07T05:50:08.804Z,7.13
2023-04-07T05:52:36.309Z,6.67
2023-04-07T05:55:03.537Z,7.37
2023-04-07T05:57:30.786Z,6.60
2023-04-07T05:59:58.021Z,6.80
2023-04-07T06:02:25.442Z,7.43
2023-04-07T06:04:52.894Z,6.87
2023-04-07T06:07:20.072Z,7.40
2023-04-07T06:09:47.250Z,7.10
2023-04-07T06:12:15.206Z,6.33
2023-04-07T06:14:42.425Z,7.10
2023-04-07T06:17:09.657Z,6.67
2023-04-07T06:19:37.058Z,6.70
2023-04-07T06:22:04.228Z,6.83
2023-04-07T06:24:31.490Z,6.70
2023-04-07T06:26:58.820Z,7.17
2023-04-07T06:29:26.618Z,7.50
2023-04-07T06:31:53.828Z,6.50
2023-04-07T06:34:21.015Z,6.50
2023-04-07T06:36:48.294Z,6.70
2023-04-07T06:39:15.646Z,6.60
2023-04-07T06:41:43.569Z,7.20
2023-04-07T06:44:11.267Z,6.67
2023-04-07T06:46:38.501Z,7.00
2023-04-07T06:49:06.077Z,7.27
2023-04-07T06:51:33.267Z,7.73
2023-04-07T06:54:00.650Z,7.90
2023-04-07T06:56:27.789Z,7.30
2023-04-07T06:58:54.975Z,7.30
2023-04-07T07:01:22.143Z,6.83
2023-04-07T07:03:49.670Z,7.20
2023-04-07T07:06:17.254Z,7.53
2023-04-07T07:08:44.447Z,6.67
2023-04-07T07:11:11.860Z,7.07
2023-04-07T07:13:39.042Z,7.03
2023-04-07T07:16:06.464Z,7.10
2023-04-07T07:18:33.686Z,6.73
2023-04-07T07:21:00.957Z,7.33
2023-04-07T07:23:28.183Z,7.43
2023-04-07T07:25:55.368Z,7.07
2023-04-07T07:28:22.621Z,6.60
2023-04-07T07:30:49.946Z,7.30
2023-04-07T07:33:17.189Z,6.63
2023-04-07T07:35:44.423Z,7.13
2023-04-07T07:38:12.687Z,6.97
2023-04-07T07:40:39.909Z,7.20
2023-04-07T07:43:07.172Z,6.13
2023-04-07T07:45:34.710Z,6.87
2023-04-07T07:48:01.930Z,6.57
2023-04-07T07:50:29.244Z,7.47
2023-04-07T07:52:56.416Z,7.07
2023-04-07T07:55:23.649Z,7.03
2023-04-07T07:57:51.082Z,7.90
2023-04-07T08:00:18.428Z,6.90
2023-04-07T08:02:45.665Z,7.20
2023-04-07T08:05:13.007Z,7.73
2023-04-07T08:07:40.336Z,7.00
2023-04-07T08:10:07.719Z,7.50
2023-04-07T08:12:34.964Z,7.47
2023-04-07T08:15:02.783Z,7.23
2023-04-07T08:17:29.959Z,7.70
2023-04-07T08:19:57.171Z,7.50
2023-04-07T08:22:24.488Z,8.07
2023-04-07T08:24:51.651Z,7.07
2023-04-07T08:27:18.837Z,7.43
2023-04-07T08:29:46.204Z,7.87
2023-04-07T08:32:14.060Z,7.43
2023-04-07T08:34:41.309Z,9.40
2023-04-07T08:37:09.586Z,8.43
2023-04-07T08:39:36.806Z,7.27
2023-04-07T08:42:04.244Z,8.83
2023-04-07T08:44:31.956Z,8.23
2023-04-07T08:47:00.377Z,8.20
2023-04-07T08:49:29.722Z,8.40
2023-04-07T08:51:57.468Z,8.17
2023-04-07T08:54:24.914Z,8.33
2023-04-07T08:56:52.309Z,8.07
2023-04-07T08:59:23.177Z,8.13
2023-04-07T09:01:50.726Z,8.03
2023-04-07T09:04:18.306Z,8.17
2023-04-07T09:06:45.618Z,8.63
2023-04-07T09:09:15.489Z,9.73
2023-04-07T09:11:42.792Z,8.57
2023-04-07T09:14:10.036Z,8.83
2023-04-07T09:16:37.324Z,8.73
2023-04-07T09:19:04.483Z,8.53
2023-04-07T09:21:51.715Z,8.60
2023-04-07T09:24:26.109Z,9.80
2023-04-07T09:27:16.112Z,11.83
2023-04-07T09:29:44.886Z,12.13
2023-04-07T09:32:13.471Z,10.67
2023-04-07T09:34:41.961Z,10.13
2023-04-07T09:37:09.663Z,9.93
2023-04-07T09:39:51.791Z,9.37
2023-04-07T09:42:19.133Z,9.20
2023-04-07T09:44:46.424Z,8.93
2023-04-07T09:47:13.618Z,9.27
2023-04-07T09:49:52.621Z,8.80
2023-04-07T09:52:20.933Z,8.70
2023-04-07T09:54:48.620Z,8.80
2023-04-07T09:57:18.337Z,8.53
2023-04-07T09:59:45.647Z,9.03
2023-04-07T10:02:13.046Z,9.00
2023-04-07T10:04:41.297Z,9.47
2023-04-07T10:07:08.741Z,9.57
2023-04-07T10:09:36.139Z,9.87
2023-04-07T10:12:04.171Z,9.50
2023-04-07T10:14:32.095Z,8.87
2023-04-07T10:17:04.363Z,8.73
2023-04-07T10:19:33.559Z,9.47
2023-04-07T10:22:01.745Z,8.83
2023-04-07T10:24:41.060Z,9.03
2023-04-07T10:27:11.582Z,8.37
2023-04-07T10:29:41.344Z,9.07
2023-04-07T10:32:08.637Z,7.90
2023-04-07T10:34:50.788Z,7.80
2023-04-07T10:37:21.298Z,7.43
2023-04-07T10:39:49.179Z,8.37
2023-04-07T10:42:35.318Z,7.37
2023-04-07T10:45:02.756Z,7.23
2023-04-07T10:47:30.330Z,7.50
2023-04-07T10:50:16.855Z,7.40
2023-04-07T10:52:44.358Z,7.67
2023-04-07T10:55:31.676Z,7.10
2023-04-07T10:58:31.501Z,6.73
2023-04-07T11:01:01.646Z,7.27
2023-04-07T11:03:30.028Z,7.13
2023-04-07T11:06:08.307Z,7.03
2023-04-07T11:08:36.571Z,7.47
2023-04-07T11:11:09.237Z,7.10
2023-04-07T11:13:50.157Z,7.63
2023-04-07T11:16:18.864Z,7.67
2023-04-07T11:18:47.853Z,6.80
2023-04-07T11:21:19.611Z,6.90
2023-04-07T11:23:48.469Z,8.37
2023-04-07T11:26:16.453Z,8.40
2023-04-07T11:28:48.006Z,7.83
2023-04-07T11:31:28.187Z,8.20
2023-04-07T11:33:59.399Z,7.63
2023-04-07T11:36:31.067Z,7.77
2023-04-07T11:38:58.448Z,6.53
2023-04-07T11:41:27.321Z,6.93
2023-04-07T11:44:08.078Z,6.77
2023-04-07T11:46:36.263Z,6.63
2023-04-07T11:49:13.755Z,7.40
2023-04-07T11:51:41.552Z,7.30
2023-04-07T11:54:08.858Z,6.80
2023-04-07T11:56:43.573Z,6.80
2023-04-07T11:59:19.056Z,7.53
2023-04-07T12:01:46.317Z,6.97
2023-04-07T12:04:16.256Z,6.63
2023-04-07T12:06:44.129Z,6.03
2023-04-07T12:09:29.399Z,6.23
2023-04-07T12:11:57.630Z,6.57
2023-04-07T12:14:25.692Z,6.17
2023-04-07T12:16:56.246Z,7.23
2023-04-07T12:19:24.262Z,6.50
2023-04-07T12:21:51.549Z,6.50
2023-04-07T12:24:18.963Z,6.90
2023-04-07T12:26:46.247Z,6.63
2023-04-07T12:29:13.774Z,6.20
2023-04-07T12:31:42.628Z,6.70
2023-04-07T12:34:10.032Z,6.03
2023-04-07T12:36:37.222Z,7.00
2023-04-07T12:39:04.719Z,6.70
2023-04-07T12:41:32.480Z,7.00
2023-04-07T12:43:59.693Z,7.00
2023-04-07T12:46:28.189Z,7.07
2023-04-07T12:48:55.479Z,7.37
2023-04-07T12:51:22.737Z,7.33
2023-04-07T12:53:50.597Z,7.70
2023-04-07T12:56:18.021Z,7.07
2023-04-07T12:58:45.186Z,7.07
2023-04-07T13:01:12.525Z,7.43
2023-04-07T13:03:40.064Z,6.60
2023-04-07T13:06:07.330Z,7.37
2023-04-07T13:08:34.566Z,8.80
2023-04-07T13:11:01.727Z,9.63
2023-04-07T13:13:29.108Z,10.23
2023-04-07T13:15:56.441Z,9.50
2023-04-07T13:18:23.564Z,10.03
2023-04-07T13:20:58.605Z,11.33
2023-04-07T13:23:43.264Z,10.57
2023-04-07T13:26:11.340Z,10.70
2023-04-07T13:28:39.156Z,10.83
2023-04-07T13:31:06.509Z,10.23
2023-04-07T13:33:35.447Z,10.87
2023-04-07T13:36:02.746Z,10.37
2023-04-07T13:38:29.923Z,10.70
2023-04-07T13:40:57.142Z,10.77
2023-04-07T13:43:24.303Z,10.70
2023-04-07T13:45:51.796Z,10.97
2023-04-07T13:48:19.130Z,10.77
2023-04-07T13:50:46.372Z,11.87
2023-04-07T13:53:13.630Z,10.93
2023-04-07T13:55:41.220Z,11.23
2023-04-07T13:58:08.444Z,11.37
2023-04-07T14:00:35.944Z,11.83
2023-04-07T14:03:04.455Z,12.53
2023-04-07T14:05:31.956Z,14.07
2023-04-07T14:07:59.272Z,14.07
2023-04-07T14:10:27.235Z,12.20
2023-04-07T14:12:54.405Z,13.70
2023-04-07T14:15:21.620Z,14.03
2023-04-07T14:17:48.814Z,14.87
2023-04-07T14:20:16.029Z,15.27
2023-04-07T14:22:43.211Z,14.33
2023-04-07T14:25:11.483Z,15.40
2023-04-07T14:27:38.681Z,14.90
2023-04-07T14:30:06.206Z,15.90
2023-04-07T14:32:34.397Z,16.03
2023-04-07T14:35:01.804Z,16.20
2023-04-07T14:37:29.425Z,15.87
2023-04-07T14:42:29.743Z,17.43
2023-04-07T14:44:56.919Z,16.97
2023-04-07T14:47:24.284Z,18.57
2023-04-07T14:49:53.370Z,17.47
2023-04-07T14:52:22.072Z,17.33
2023-04-07T14:54:49.496Z,17.17
2023-04-07T14:57:17.173Z,17.33
2023-04-07T14:59:44.565Z,15.50
2023-04-07T15:02:11.857Z,17.37
2023-04-07T15:04:39.583Z,16.40
2023-04-07T15:07:06.936Z,15.60
2023-04-07T15:09:34.522Z,15.13
2023-04-07T15:12:02.430Z,15.07
2023-04-07T15:14:30.460Z,15.70
2023-04-07T15:16:57.708Z,16.93
2023-04-07T15:19:24.931Z,16.50
2023-04-07T15:21:52.072Z,24.07
2023-04-07T15:24:21.424Z,18.27
2023-04-07T15:26:49.479Z,15.53
2023-04-07T15:29:16.667Z,17.57
2023-04-07T15:31:43.979Z,15.17
2023-04-07T15:34:11.313Z,16.27
2023-04-07T15:36:38.539Z,16.33
2023-04-07T15:39:09.617Z,16.33
2023-04-07T15:41:36.959Z,17.60
2023-04-07T15:44:04.766Z,16.43
2023-04-07T15:46:32.403Z,16.23
2023-04-07T15:49:00.481Z,16.73
2023-04-07T15:51:27.721Z,18.17
2023-04-07T15:53:55.253Z,18.10
2023-04-07T15:56:25.064Z,18.07
2023-04-07T15:58:52.353Z,16.97
2023-04-07T16:01:19.960Z,18.40
2023-04-07T16:03:47.471Z,16.97
2023-04-07T16:06:15.033Z,17.63
2023-04-07T16:08:42.338Z,15.67
2023-04-07T16:11:09.528Z,16.40
2023-04-07T16:13:36.839Z,16.77
2023-04-07T16:16:04.380Z,18.73
2023-04-07T16:18:31.600Z,18.50
2023-04-07T16:21:02.425Z,17.13
2023-04-07T16:23:31.133Z,17.20
2023-04-07T16:25:58.596Z,16.33
2023-04-07T16:28:25.766Z,17.60
2023-04-07T16:30:53.157Z,18.30
2023-04-07T16:33:20.491Z,17.13
2023-04-07T16:35:47.681Z,18.63
2023-04-07T16:38:15.037Z,17.70
2023-04-07T16:40:45.862Z,19.73
2023-04-07T16:43:21.067Z,21.53
2023-04-07T16:45:52.057Z,18.47
2023-04-07T16:48:19.340Z,16.93
2023-04-07T16:50:46.569Z,17.87
2023-04-07T16:53:13.719Z,17.73
2023-04-07T16:55:41.097Z,17.87
2023-04-07T16:58:11.896Z,17.17
2023-04-07T17:00:39.568Z,18.07
2023-04-07T17:03:06.956Z,16.63
2023-04-07T17:05:34.594Z,19.77
2023-04-07T17:08:01.714Z,19.27
2023-04-07T17:10:28.868Z,17.27
2023-04-07T17:12:56.392Z,18.33
2023-04-07T17:15:24.262Z,18.37
2023-04-07T17:17:51.587Z,18.07
2023-04-07T17:20:18.897Z,19.00
2023-04-07T17:22:46.642Z,18.40
2023-04-07T17:25:13.841Z,17.17
2023-04-07T17:27:44.027Z,16.47
2023-04-07T17:30:14.335Z,16.63
2023-04-07T17:32:42.474Z,16.67
2023-04-07T17:35:09.833Z,16.67
2023-04-07T17:37:38.415Z,17.03
2023-04-07T17:40:06.246Z,16.60
2023-04-07T17:42:33.574Z,16.90
2023-04-07T17:45:01.815Z,16.40
2023-04-07T17:47:30.944Z,17.13
2023-04-07T17:50:00.254Z,17.50
2023-04-07T17:52:28.915Z,17.27
2023-04-07T17:54:56.694Z,18.70
2023-04-07T17:57:24.363Z,19.60
2023-04-07T17:59:51.564Z,19.20
2023-04-07T18:02:18.956Z,18.17
2023-04-07T18:04:46.785Z,17.93
2023-04-07T18:07:14.971Z,18.97
2023-04-07T18:09:43.022Z,18.53
2023-04-07T18:12:10.280Z,18.17
2023-04-07T18:14:37.595Z,19.27
2023-04-07T18:17:04.768Z,19.93
2023-04-07T18:19:33.893Z,21.13
2023-04-07T18:22:01.975Z,19.33
2023-04-07T18:24:29.220Z,19.20
2023-04-07T18:26:57.326Z,19.20
2023-04-07T18:29:24.470Z,18.40
2023-04-07T18:31:51.734Z,18.97
2023-04-07T18:34:18.868Z,18.30
2023-04-07T18:36:47.599Z,18.23
2023-04-07T18:39:14.839Z,18.57
2023-04-07T18:41:44.752Z,18.53
2023-04-07T18:44:12.537Z,18.90
2023-04-07T18:46:39.743Z,18.23
2023-04-07T18:49:07.241Z,16.97
2023-04-07T18:51:34.579Z,18.57
2023-04-07T18:54:01.801Z,18.07
2023-04-07T18:56:29.920Z,19.07
2023-04-07T18:58:57.202Z,18.97
2023-04-07T19:01:24.668Z,19.80
2023-04-07T19:03:52.697Z,20.10
2023-04-07T19:06:20.538Z,19.73
2023-04-07T19:08:47.739Z,20.23
2023-04-07T19:11:14.927Z,20.30
2023-04-07T19:13:42.438Z,20.90
2023-04-07T19:16:09.788Z,19.50
2023-04-07T19:18:37.429Z,19.13
2023-04-07T19:21:04.572Z,19.20
2023-04-07T19:23:32.570Z,18.77
2023-04-07T19:26:00.858Z,20.13
2023-04-07T19:28:28.028Z,19.87
2023-04-07T19:30:55.988Z,21.00
2023-04-07T19:33:23.122Z,20.80
2023-04-07T19:35:50.426Z,19.73
2023-04-07T19:38:18.257Z,20.27
2023-04-07T19:40:47.847Z,21.50
2023-04-07T19:43:16.486Z,25.97
2023-04-07T19:45:43.807Z,25.37
2023-04-07T19:48:11.490Z,24.77
2023-04-07T19:50:43.572Z,24.13
2023-04-07T19:53:16.227Z,27.73
2023-04-07T19:55:44.060Z,26.93
2023-04-07T19:58:11.434Z,26.87
2023-04-07T20:00:39.257Z,28.93
2023-04-07T20:03:06.975Z,26.17
2023-04-07T20:05:34.835Z,25.40
2023-04-07T20:08:02.027Z,26.57
2023-04-07T20:10:29.216Z,25.27
2023-04-07T20:12:56.820Z,25.53
2023-04-07T20:15:27.257Z,25.00
2023-04-07T20:17:54.439Z,26.30
2023-04-07T20:20:22.373Z,26.17
2023-04-07T20:22:49.608Z,25.40
2023-04-07T20:25:17.023Z,25.47
2023-04-07T20:27:48.930Z,28.00
2023-04-07T20:30:16.560Z,26.87
2023-04-07T20:32:45.984Z,25.77
2023-04-07T20:35:13.311Z,27.60
2023-04-07T20:37:40.932Z,26.73
2023-04-07T20:40:08.551Z,27.37
2023-04-07T20:42:35.823Z,26.23
2023-04-07T20:45:05.655Z,26.67
2023-04-07T20:47:35.984Z,27.37
2023-04-07T20:50:03.331Z,27.60
2023-04-07T20:52:30.556Z,26.93
2023-04-07T20:54:58.381Z,28.17
2023-04-07T20:57:26.687Z,27.10
2023-04-07T20:59:53.888Z,26.83
2023-04-07T21:02:21.297Z,28.80
2023-04-07T21:04:49.069Z,28.23
2023-04-07T21:07:16.561Z,27.30
2023-04-07T21:09:43.807Z,27.83
2023-04-07T21:12:11.180Z,27.93
2023-04-07T21:14:38.358Z,26.60
2023-04-07T21:17:05.795Z,27.53
2023-04-07T21:19:33.032Z,27.27
2023-04-07T21:22:03.792Z,28.30
2023-04-07T21:24:32.087Z,27.60
2023-04-07T21:26:59.692Z,27.53
2023-04-07T21:29:31.491Z,26.17
2023-04-07T21:32:00.250Z,27.73
2023-04-07T21:34:27.560Z,27.37
2023-04-07T21:36:55.221Z,29.70
2023-04-07T21:39:22.501Z,27.93
2023-04-07T21:41:49.684Z,28.33
2023-04-07T21:44:21.436Z,28.07
2023-04-07T21:46:48.728Z,27.60
2023-04-07T21:49:18.039Z,27.43
2023-04-07T21:51:45.265Z,27.30
2023-04-07T21:54:12.560Z,27.93
2023-04-07T21:56:39.732Z,27.93
2023-04-07T21:59:07.323Z,28.40
2023-04-07T22:01:34.648Z,26.80
2023-04-07T22:04:02.346Z,28.07
2023-04-07T22:06:29.738Z,27.97
2023-04-07T22:09:01.601Z,26.47
2023-04-07T22:11:29.232Z,29.33
2023-04-07T22:13:56.572Z,27.10
2023-04-07T22:16:23.808Z,29.10
2023-04-07T22:18:51.631Z,27.37
2023-04-07T22:21:18.792Z,27.50
2023-04-07T22:23:45.920Z,27.57
2023-04-07T22:26:14.417Z,25.87
2023-04-07T22:28:41.972Z,26.57
2023-04-07T22:31:09.278Z,24.97
2023-04-07T22:33:36.588Z,26.57
2023-04-07T22:36:04.210Z,25.63
2023-04-07T22:38:31.537Z,25.10
2023-04-07T22:40:58.782Z,25.27
2023-04-07T22:43:25.988Z,24.53
2023-04-07T22:45:53.174Z,25.33
2023-04-07T22:48:20.728Z,22.43
2023-04-07T22:50:48.024Z,22.60
2023-04-07T22:53:15.217Z,24.53
2023-04-07T22:55:42.373Z,23.17
2023-04-07T22:58:09.672Z,21.50
2023-04-07T23:00:36.926Z,21.87
2023-04-07T23:03:04.583Z,23.07
2023-04-07T23:05:31.927Z,22.30
2023-04-07T23:07:59.178Z,20.90
2023-04-07T23:10:26.390Z,20.83
2023-04-07T23:12:56.719Z,19.43
2023-04-07T23:15:23.892Z,20.20
2023-04-07T23:17:51.059Z,19.00
2023-04-07T23:20:18.630Z,19.63
2023-04-07T23:22:46.086Z,17.73
2023-04-07T23:25:13.725Z,18.33
2023-04-07T23:27:41.136Z,18.07
2023-04-07T23:30:08.706Z,18.47
2023-04-07T23:32:36.010Z,17.70
2023-04-07T23:35:03.474Z,17.17
2023-04-07T23:37:30.818Z,17.20
2023-04-07T23:39:57.982Z,15.73
2023-04-07T23:42:25.339Z,17.10
2023-04-07T23:44:52.479Z,17.07
2023-04-07T23:47:19.721Z,16.13
2023-04-07T23:49:47.189Z,16.17
2023-04-07T23:52:15.286Z,16.03
2023-04-07T23:54:42.763Z,15.53
2023-04-07T23:57:12.916Z,15.07
2023-04-07T23:59:40.258Z,14.37
